Kamen'-na-Obi, Russia
Current Conditions -  °F | °C
As of 11:30 PM on Sunday 21 Dec 2014 (Local Time) from UNBB Reporting Station
Broken Clouds Broken Clouds  
Wind Chill: 11°   Ceiling: 3400
Heat Index: 21°   Visibility: 6mi
Dew Point: 16°   Wind: 9mph
Humidity: 80%   Direction: 180°S
Pressure: 30.21"   Gusts: NA
Location:  53.82°N, 81.27°E
Report Text: UNBB 211630Z 18004MPS 9999 BKN034 M06/M09 Q1023 NOSIG RMKQFE744/0993 24800560
Loading
Personal Weather Stations






























Interactive Weather Map New forecast layout! Learn more

10-Day Weather Forecast

Advertisements
Track Severe Weather on mobile